createdAt,value
2022-12-17T00:00:51.895Z,102196.22
2022-12-17T00:03:37.766Z,102187.53
2022-12-17T00:06:23.499Z,102189.19
2022-12-17T00:09:08.802Z,102194.94
2022-12-17T00:11:54.100Z,102185.69
2022-12-17T00:14:41.816Z,102182.34
2022-12-17T00:17:28.409Z,102179.72
2022-12-17T00:20:13.867Z,102181.19
2022-12-17T00:22:59.109Z,102169.84
2022-12-17T00:25:44.714Z,102174.84
2022-12-17T00:28:30.643Z,102163.81
2022-12-17T00:31:16.065Z,102165.81
2022-12-17T00:34:02.723Z,102163.50
2022-12-17T00:36:48.295Z,102165.47
2022-12-17T00:39:33.362Z,102162.34
2022-12-17T00:42:18.935Z,102166.00
2022-12-17T00:45:03.953Z,102167.97
2022-12-17T00:47:49.282Z,102165.75
2022-12-17T00:50:36.018Z,102172.88
2022-12-17T00:53:21.066Z,102174.81
2022-12-17T00:56:06.198Z,102178.53
2022-12-17T00:58:51.602Z,102186.56
2022-12-17T01:01:37.486Z,102181.75
2022-12-17T01:04:37.779Z,102166.81
2022-12-17T01:07:24.501Z,102170.53
2022-12-17T01:10:10.047Z,102167.56
2022-12-17T01:12:56.307Z,102168.63
2022-12-17T01:15:41.705Z,102169.75
2022-12-17T01:18:38.512Z,102173.59
2022-12-17T01:21:24.257Z,102174.06
2022-12-17T01:24:11.099Z,102172.72
2022-12-17T01:26:56.457Z,102173.00
2022-12-17T01:29:41.666Z,102158.09
2022-12-17T01:32:23.428Z,102172.75
2022-12-17T01:35:08.790Z,102169.50
2022-12-17T01:37:54.037Z,102162.91
2022-12-17T01:40:40.895Z,102156.22
2022-12-17T01:43:30.832Z,102154.59
2022-12-17T01:46:16.538Z,102165.59
2022-12-17T01:49:05.622Z,102169.03
2022-12-17T01:51:53.153Z,102179.22
2022-12-17T01:54:38.765Z,102184.34
2022-12-17T01:57:26.183Z,102180.16
2022-12-17T02:00:15.668Z,102175.19
2022-12-17T02:03:01.755Z,102171.03
2022-12-17T02:06:08.658Z,102168.63
2022-12-17T02:09:03.169Z,102156.84
2022-12-17T02:11:59.225Z,102165.31
2022-12-17T02:14:52.914Z,102153.50
2022-12-17T02:17:45.522Z,102153.63
2022-12-17T02:20:40.945Z,102145.38
2022-12-17T02:23:38.613Z,102156.47
2022-12-17T02:26:30.840Z,102152.41
2022-12-17T02:29:20.756Z,102161.88
2022-12-17T02:32:08.212Z,102159.44
2022-12-17T02:35:02.418Z,102166.34
2022-12-17T02:37:53.256Z,102166.38
2022-12-17T02:40:40.975Z,102160.59
2022-12-17T02:43:27.376Z,102170.00
2022-12-17T02:46:15.047Z,102171.84
2022-12-17T02:49:01.207Z,102168.63
2022-12-17T02:51:47.221Z,102171.34
2022-12-17T02:54:32.399Z,102162.19
2022-12-17T02:57:18.457Z,102169.91
2022-12-17T03:00:03.945Z,102176.81
2022-12-17T03:02:51.400Z,102184.66
2022-12-17T03:05:51.174Z,102181.38
2022-12-17T03:08:36.162Z,102178.88
2022-12-17T03:11:21.552Z,102174.00
2022-12-17T03:14:07.030Z,102169.06
2022-12-17T03:16:52.295Z,102169.09
2022-12-17T03:19:42.155Z,102157.22
2022-12-17T03:22:27.510Z,102174.19
2022-12-17T03:25:12.880Z,102168.31
2022-12-17T03:27:58.466Z,102177.66
2022-12-17T03:30:48.661Z,102168.34
2022-12-17T03:33:34.814Z,102175.22
2022-12-17T03:36:22.580Z,102171.09
2022-12-17T03:39:07.585Z,102181.41
2022-12-17T03:41:52.831Z,102174.03
2022-12-17T03:44:38.288Z,102177.59
2022-12-17T03:47:23.569Z,102176.88
2022-12-17T03:50:09.156Z,102181.16
2022-12-17T03:52:56.424Z,102188.88
2022-12-17T03:55:41.929Z,102182.16
2022-12-17T03:58:27.187Z,102187.22
2022-12-17T04:01:12.487Z,102182.94
2022-12-17T04:03:59.694Z,102170.19
2022-12-17T04:06:45.079Z,102172.69
2022-12-17T04:09:32.173Z,102184.59
2022-12-17T04:12:17.292Z,102173.59
2022-12-17T04:15:02.830Z,102176.97
2022-12-17T04:17:48.207Z,102176.06
2022-12-17T04:20:33.629Z,102181.13
2022-12-17T04:23:19.156Z,102179.44
2022-12-17T04:26:06.167Z,102188.72
2022-12-17T04:28:51.395Z,102180.25
2022-12-17T04:31:36.419Z,102184.44
2022-12-17T04:34:21.621Z,102182.75
2022-12-17T04:37:06.996Z,102195.47
2022-12-17T04:39:52.212Z,102192.88
2022-12-17T04:42:39.331Z,102190.34
2022-12-17T04:45:25.798Z,102185.16
2022-12-17T04:48:19.879Z,102177.47
2022-12-17T04:51:05.292Z,102178.22
2022-12-17T04:53:50.535Z,102177.44
2022-12-17T04:56:38.773Z,102179.13
2022-12-17T04:59:25.576Z,102184.28
2022-12-17T05:02:10.906Z,102185.09
2022-12-17T05:04:56.417Z,102185.91
2022-12-17T05:07:41.957Z,102186.72
2022-12-17T05:10:27.854Z,102183.31
2022-12-17T05:13:16.774Z,102187.59
2022-12-17T05:16:04.337Z,102183.31
2022-12-17T05:18:54.965Z,102179.03
2022-12-17T05:21:40.301Z,102192.59
2022-12-17T05:24:25.612Z,102189.94
2022-12-17T05:27:11.059Z,102198.31
2022-12-17T05:29:56.314Z,102192.31
2022-12-17T05:32:43.314Z,102197.41
2022-12-17T05:35:28.796Z,102197.47
2022-12-17T05:38:21.007Z,102203.47
2022-12-17T05:41:06.054Z,102198.41
2022-12-17T05:43:51.391Z,102199.22
2022-12-17T05:46:33.220Z,102193.25
2022-12-17T05:49:20.265Z,102185.59
2022-12-17T05:52:05.563Z,102182.09
2022-12-17T05:54:51.543Z,102183.84
2022-12-17T05:57:36.869Z,102189.88
2022-12-17T06:00:24.940Z,102177.22
2022-12-17T06:03:16.467Z,102176.38
2022-12-17T06:06:03.401Z,102181.50
2022-12-17T06:08:48.926Z,102180.63
2022-12-17T06:11:34.235Z,102184.97
2022-12-17T06:14:22.753Z,102186.75
2022-12-17T06:17:08.284Z,102185.00
2022-12-17T06:19:53.355Z,102188.50
2022-12-17T06:22:43.000Z,102194.47
2022-12-17T06:25:28.309Z,102193.69
2022-12-17T06:28:23.066Z,102186.97
2022-12-17T06:31:09.878Z,102192.13
2022-12-17T06:33:56.313Z,102197.25
2022-12-17T06:36:41.701Z,102196.50
2022-12-17T06:39:34.468Z,102191.44
2022-12-17T06:42:19.938Z,102195.72
2022-12-17T06:45:05.383Z,102208.53
2022-12-17T06:47:50.677Z,102206.06
2022-12-17T06:50:36.011Z,102205.28
2022-12-17T06:53:22.378Z,102209.56
2022-12-17T06:56:09.020Z,102220.63
2022-12-17T06:58:54.450Z,102226.59
2022-12-17T07:01:40.379Z,102224.97
2022-12-17T07:04:25.857Z,102231.00
2022-12-17T07:07:11.288Z,102219.16
2022-12-17T07:09:57.261Z,102220.91
2022-12-17T07:12:44.053Z,102228.56
2022-12-17T07:15:30.113Z,102229.44
2022-12-17T07:18:15.995Z,102223.50
2022-12-17T07:21:01.670Z,102220.22
2022-12-17T07:23:47.189Z,102216.84
2022-12-17T07:26:33.030Z,102211.78
2022-12-17T07:29:20.004Z,102215.28
2022-12-17T07:32:05.468Z,102208.50
2022-12-17T07:34:50.901Z,102201.75
2022-12-17T07:37:36.325Z,102200.13
2022-12-17T07:40:22.246Z,102211.16
2022-12-17T07:43:07.715Z,102215.47
2022-12-17T07:45:54.548Z,102211.25
2022-12-17T07:48:39.798Z,102208.72
2022-12-17T07:51:25.224Z,102213.88
2022-12-17T07:54:10.458Z,102210.56
2022-12-17T07:56:55.872Z,102219.91
2022-12-17T07:59:41.144Z,102225.91
2022-12-17T08:02:29.859Z,102223.41
2022-12-17T08:05:15.409Z,102226.75
2022-12-17T08:08:00.750Z,102214.72
2022-12-17T08:10:46.357Z,102223.09
2022-12-17T08:13:31.489Z,102219.66
2022-12-17T08:16:16.883Z,102215.38
2022-12-17T08:19:03.704Z,102220.44
2022-12-17T08:21:49.014Z,102226.34
2022-12-17T08:24:34.111Z,102221.28
2022-12-17T08:27:19.486Z,102225.69
2022-12-17T08:30:04.806Z,102225.72
2022-12-17T08:32:52.596Z,102212.19
2022-12-17T08:35:39.251Z,102207.03
2022-12-17T08:38:25.133Z,102196.88
2022-12-17T08:41:10.557Z,102199.50
2022-12-17T08:43:55.784Z,102184.25
2022-12-17T08:46:41.221Z,102190.16
2022-12-17T08:49:26.432Z,102189.41
2022-12-17T08:52:13.630Z,102197.09
2022-12-17T08:54:58.758Z,102185.16
2022-12-17T08:57:43.714Z,102175.03
2022-12-17T09:00:29.897Z,102172.59
2022-12-17T09:03:15.757Z,102176.06
2022-12-17T09:06:01.501Z,102181.16
2022-12-17T09:08:47.670Z,102174.44
2022-12-17T09:11:33.520Z,102177.09
2022-12-17T09:14:18.774Z,102165.25
2022-12-17T09:17:04.420Z,102162.78
2022-12-17T09:19:49.538Z,102147.59
2022-12-17T09:22:35.097Z,102141.69
2022-12-17T09:25:22.085Z,102140.13
2022-12-17T09:28:07.461Z,102146.25
2022-12-17T09:30:53.046Z,102152.28
2022-12-17T09:33:39.207Z,102166.03
2022-12-17T09:36:25.861Z,102170.31
2022-12-17T09:39:11.237Z,102177.28
2022-12-17T09:42:06.844Z,102161.25
2022-12-17T09:44:59.609Z,102151.13
2022-12-17T09:47:59.292Z,102150.31
2022-12-17T09:50:45.566Z,102142.75
2022-12-17T09:53:40.044Z,102140.31
2022-12-17T09:56:29.595Z,102143.78
2022-12-17T09:59:16.904Z,102151.44
2022-12-17T10:02:02.801Z,102136.97
2022-12-17T10:04:53.324Z,102147.25
2022-12-17T10:07:42.073Z,102126.00
2022-12-17T10:10:35.840Z,102130.34
2022-12-17T10:13:18.016Z,102129.53
2022-12-17T10:16:04.819Z,102124.47
2022-12-17T10:18:50.735Z,102124.50
2022-12-17T10:21:38.078Z,102127.91
2022-12-17T10:24:24.547Z,102133.88
2022-12-17T10:27:11.207Z,102131.28
2022-12-17T10:29:59.509Z,102129.69
2022-12-17T10:32:50.182Z,102133.16
2022-12-17T10:35:38.560Z,102136.63
2022-12-17T10:38:31.607Z,102127.28
2022-12-17T10:41:16.845Z,102129.88
2022-12-17T10:44:03.355Z,102123.13
2022-12-17T10:46:50.717Z,102119.81
2022-12-17T10:49:39.369Z,102119.94
2022-12-17T10:52:45.601Z,102114.88
2022-12-17T10:55:40.695Z,102120.91
2022-12-17T10:58:32.414Z,102107.31
2022-12-17T11:01:18.953Z,102105.66
2022-12-17T11:04:09.817Z,102106.59
2022-12-17T11:06:59.956Z,102104.06
2022-12-17T11:10:03.724Z,102091.31
2022-12-17T11:12:57.665Z,102087.94
2022-12-17T11:15:50.094Z,102076.88
2022-12-17T11:18:38.793Z,102082.03
2022-12-17T11:21:29.170Z,102081.19
2022-12-17T11:24:22.395Z,102076.09
2022-12-17T11:27:12.215Z,102062.47
2022-12-17T11:29:58.034Z,102074.44
2022-12-17T11:33:04.207Z,102087.25
2022-12-17T11:36:01.709Z,102071.91
2022-12-17T11:38:54.779Z,102067.63
2022-12-17T11:41:53.869Z,102065.06
2022-12-17T11:44:55.315Z,102072.75
2022-12-17T11:47:54.894Z,102088.13
2022-12-17T11:50:47.111Z,102071.06
2022-12-17T11:53:55.731Z,102063.38
2022-12-17T11:56:45.258Z,102044.59
2022-12-17T11:59:41.842Z,102039.47
2022-12-17T12:02:42.084Z,102056.56
2022-12-17T12:05:37.701Z,102062.53
2022-12-17T12:08:35.623Z,102059.97
2022-12-17T12:11:31.561Z,102077.91
2022-12-17T12:14:26.262Z,102038.66
2022-12-17T12:17:21.765Z,102036.91
2022-12-17T12:20:27.309Z,102035.22
2022-12-17T12:23:20.900Z,102042.06
2022-12-17T12:26:16.639Z,102052.31
2022-12-17T12:29:08.109Z,102058.31
2022-12-17T12:31:58.686Z,102052.31
2022-12-17T12:34:51.997Z,102048.06
2022-12-17T12:37:38.995Z,102045.50
2022-12-17T12:40:35.119Z,102044.63
2022-12-17T12:43:31.110Z,102048.06
2022-12-17T12:46:22.072Z,102046.34
2022-12-17T12:49:12.913Z,102036.97
2022-12-17T12:52:00.653Z,102034.41
2022-12-17T12:54:49.256Z,102049.78
2022-12-17T12:57:49.716Z,102044.66
2022-12-17T13:00:57.545Z,102053.22
2022-12-17T13:03:46.703Z,102040.41
2022-12-17T13:06:16.462Z,102033.53
2022-12-17T13:08:46.134Z,102030.97
2022-12-17T13:11:30.285Z,102028.41
2022-12-17T13:14:07.150Z,102036.97
2022-12-17T13:16:42.775Z,102030.16
2022-12-17T13:19:21.416Z,102030.97
2022-12-17T13:21:49.903Z,102036.09
2022-12-17T13:24:29.042Z,102041.22
2022-12-17T13:26:56.947Z,102033.53
2022-12-17T13:29:30.227Z,102038.66
2022-12-17T13:32:21.151Z,102048.09
2022-12-17T13:35:06.961Z,102050.66
2022-12-17T13:37:51.233Z,102056.63
2022-12-17T13:40:34.734Z,102048.94
2022-12-17T13:43:03.674Z,102048.94
2022-12-17T13:45:35.763Z,102042.97
2022-12-17T13:48:03.826Z,102049.78
2022-12-17T13:50:36.147Z,102054.06
2022-12-17T13:53:11.456Z,102069.44
2022-12-17T13:55:41.095Z,102048.91
2022-12-17T13:58:23.038Z,102037.81
2022-12-17T14:00:51.091Z,102044.66
2022-12-17T14:03:42.847Z,102043.78
2022-12-17T14:06:12.840Z,102046.34
2022-12-17T14:08:41.876Z,102051.50
2022-12-17T14:11:30.706Z,102049.78
2022-12-17T14:13:58.974Z,102059.19
2022-12-17T14:16:27.154Z,102051.47
2022-12-17T14:18:57.359Z,102051.47
2022-12-17T14:21:27.358Z,102032.66
2022-12-17T14:23:56.280Z,102039.53
2022-12-17T14:26:26.137Z,102027.53
2022-12-17T14:28:56.055Z,102024.97
2022-12-17T14:31:27.550Z,102024.13
2022-12-17T14:34:07.651Z,102025.84
2022-12-17T14:36:37.741Z,102024.13
2022-12-17T14:39:16.441Z,102030.97
2022-12-17T14:42:03.408Z,102024.13
2022-12-17T14:44:32.241Z,102028.41
2022-12-17T14:47:11.557Z,102027.56
2022-12-17T14:49:55.362Z,102029.28
2022-12-17T14:52:32.080Z,102027.56
2022-12-17T14:55:00.166Z,102025.84
2022-12-17T14:57:29.529Z,102030.97
2022-12-17T14:59:57.659Z,102036.09
2022-12-17T15:02:28.502Z,102042.97
2022-12-17T15:04:59.059Z,102030.97
2022-12-17T15:07:28.741Z,102036.09
2022-12-17T15:10:01.307Z,102033.53
2022-12-17T15:12:33.254Z,102036.09
2022-12-17T15:15:01.253Z,102024.16
2022-12-17T15:17:29.177Z,102032.72
2022-12-17T15:19:57.025Z,102024.16
2022-12-17T15:22:25.150Z,102025.84
2022-12-17T15:24:53.060Z,102027.56
2022-12-17T15:27:20.993Z,102029.28
2022-12-17T15:29:50.329Z,102029.28
2022-12-17T15:32:20.385Z,102029.28
2022-12-17T15:34:48.139Z,102033.53
2022-12-17T15:37:21.023Z,102027.53
2022-12-17T15:39:52.101Z,102024.97
2022-12-17T15:42:37.466Z,102022.41
2022-12-17T15:45:08.188Z,102032.66
2022-12-17T15:47:36.130Z,102036.09
2022-12-17T15:50:04.340Z,102042.09
2022-12-17T15:52:33.020Z,102035.22
2022-12-17T15:55:00.921Z,102031.81
2022-12-17T15:57:28.833Z,102033.53
2022-12-17T15:59:56.797Z,102041.22
2022-12-17T16:02:26.291Z,102043.78
2022-12-17T16:04:54.409Z,102054.03
2022-12-17T16:07:22.341Z,102053.19
2022-12-17T16:09:50.249Z,102044.63
2022-12-17T16:12:18.194Z,102046.34
2022-12-17T16:14:46.108Z,102039.50
2022-12-17T16:17:14.045Z,102038.63
2022-12-17T16:19:43.810Z,102036.94
2022-12-17T16:22:11.802Z,102034.38
2022-12-17T16:24:41.023Z,102035.19
2022-12-17T16:27:08.980Z,102038.63
2022-12-17T16:29:36.850Z,102036.06
2022-12-17T16:32:04.941Z,102038.63
2022-12-17T16:34:32.869Z,102041.19
2022-12-17T16:37:02.210Z,102042.06
2022-12-17T16:39:30.159Z,102038.63
2022-12-17T16:41:59.813Z,102038.59
2022-12-17T16:44:27.934Z,102050.56
2022-12-17T16:46:56.029Z,102043.75
2022-12-17T16:49:28.057Z,102055.69
2022-12-17T16:51:57.669Z,102046.31
2022-12-17T16:54:30.633Z,102048.00
2022-12-17T16:57:07.500Z,102053.13
2022-12-17T16:59:35.402Z,102040.28
2022-12-17T17:02:05.807Z,102048.00
2022-12-17T17:04:33.844Z,102038.59
2022-12-17T17:07:01.793Z,102043.72
2022-12-17T17:09:31.175Z,102050.53
2022-12-17T17:12:00.411Z,102040.28
2022-12-17T17:14:28.469Z,102041.97
2022-12-17T17:16:56.853Z,102034.28
2022-12-17T17:19:24.763Z,102040.28
2022-12-17T17:21:54.066Z,102031.69
2022-12-17T17:24:24.228Z,102036.81
2022-12-17T17:26:54.980Z,102026.53
2022-12-17T17:29:23.783Z,102030.81
2022-12-17T17:34:40.195Z,102038.50
2022-12-17T17:37:08.219Z,102039.34
2022-12-17T17:39:36.225Z,102043.63
2022-12-17T17:42:06.111Z,102036.75
2022-12-17T17:44:34.085Z,102032.47
2022-12-17T17:47:02.310Z,102030.78
2022-12-17T17:49:30.309Z,102032.47
2022-12-17T17:52:13.596Z,102028.19
2022-12-17T17:54:41.533Z,102035.00
2022-12-17T17:57:11.766Z,102029.00
2022-12-17T17:59:40.443Z,102029.00
2022-12-17T18:02:09.063Z,102022.16
2022-12-17T18:04:37.353Z,102032.41
2022-12-17T18:09:53.371Z,102022.13
2022-12-17T18:12:40.366Z,102023.00
2022-12-17T18:15:18.166Z,102017.81
2022-12-17T18:17:50.328Z,102022.09
2022-12-17T18:20:18.582Z,102028.94
2022-12-17T18:22:47.254Z,102030.66
2022-12-17T18:25:16.069Z,102032.38
2022-12-17T18:27:45.583Z,102029.81
2022-12-17T18:30:14.361Z,102019.53
2022-12-17T18:32:42.324Z,102032.38
2022-12-17T18:35:10.945Z,102026.34
2022-12-17T18:37:38.867Z,102033.19
2022-12-17T18:40:08.422Z,102033.19
2022-12-17T18:42:53.530Z,102030.63
2022-12-17T18:45:23.039Z,102030.59
2022-12-17T18:47:53.645Z,102042.59
2022-12-17T18:50:21.448Z,102036.56
2022-12-17T18:52:49.401Z,102045.13
2022-12-17T18:55:17.602Z,102044.25
2022-12-17T18:57:45.572Z,102041.66
2022-12-17T19:00:14.892Z,102045.91
2022-12-17T19:02:44.525Z,102057.94
2022-12-17T19:05:12.595Z,102047.63
2022-12-17T19:07:40.492Z,102046.75
2022-12-17T19:10:10.814Z,102058.72
2022-12-17T19:12:38.709Z,102057.03
2022-12-17T19:15:07.419Z,102057.03
2022-12-17T19:17:35.383Z,102063.03
2022-12-17T19:20:05.698Z,102049.28
2022-12-17T19:22:33.680Z,102057.00
2022-12-17T19:25:01.676Z,102055.28
2022-12-17T19:27:29.864Z,102058.69
2022-12-17T19:29:57.814Z,102068.97
2022-12-17T19:32:25.891Z,102065.53
2022-12-17T19:34:53.743Z,102076.66
2022-12-17T19:37:23.044Z,102070.63
2022-12-17T19:39:50.897Z,102078.34
2022-12-17T19:42:36.587Z,102078.31
2022-12-17T19:45:05.894Z,102064.63
2022-12-17T19:47:33.870Z,102067.16
2022-12-17T19:50:01.795Z,102063.72
2022-12-17T19:52:31.168Z,102065.38
2022-12-17T19:54:59.133Z,102061.09
2022-12-17T19:57:27.046Z,102067.09
2022-12-17T19:59:54.909Z,102074.81
2022-12-17T20:02:24.983Z,102072.22
2022-12-17T20:04:56.398Z,102085.88
2022-12-17T20:07:24.393Z,102083.28
2022-12-17T20:09:53.900Z,102078.06
2022-12-17T20:12:21.793Z,102071.19
2022-12-17T20:14:49.693Z,102072.88
2022-12-17T20:17:17.710Z,102075.44
2022-12-17T20:19:45.673Z,102076.28
2022-12-17T20:22:13.587Z,102075.41
2022-12-17T20:24:41.558Z,102082.25
2022-12-17T20:27:11.803Z,102077.06
2022-12-17T20:29:39.805Z,102076.25
2022-12-17T20:32:08.592Z,102085.66
2022-12-17T20:34:36.553Z,102077.91
2022-12-17T20:37:04.477Z,102083.91
2022-12-17T20:39:32.470Z,102081.31
2022-12-17T20:42:00.709Z,102087.25
2022-12-17T20:44:30.049Z,102086.41
2022-12-17T20:46:58.183Z,102083.81
2022-12-17T20:49:26.060Z,102074.38
2022-12-17T20:51:53.982Z,102076.06
2022-12-17T20:54:21.826Z,102084.63
2022-12-17T20:56:50.028Z,102070.03
2022-12-17T20:59:19.389Z,102073.44
2022-12-17T21:01:55.566Z,102068.25
2022-12-17T21:04:24.583Z,102069.09
2022-12-17T21:06:53.022Z,102067.38
2022-12-17T21:09:22.563Z,102067.34
2022-12-17T21:11:50.543Z,102077.69
2022-12-17T21:14:19.507Z,102075.09
2022-12-17T21:16:49.169Z,102074.19
2022-12-17T21:19:19.051Z,102078.47
2022-12-17T21:21:47.119Z,102082.78
2022-12-17T21:24:15.061Z,102082.75
2022-12-17T21:26:45.329Z,102087.91
2022-12-17T21:29:14.411Z,102091.31
2022-12-17T21:31:45.077Z,102092.16
2022-12-17T21:34:16.913Z,102089.59
2022-12-17T21:36:45.231Z,102093.88
2022-12-17T21:39:14.672Z,102095.59
2022-12-17T21:42:05.310Z,102103.31
2022-12-17T21:44:33.321Z,102090.44
2022-12-17T21:47:02.203Z,102088.69
2022-12-17T21:49:31.894Z,102090.41
2022-12-17T21:52:00.599Z,102088.66
2022-12-17T21:54:29.629Z,102092.97
2022-12-17T21:56:57.687Z,102086.97
2022-12-17T21:59:25.593Z,102082.69
2022-12-17T22:01:54.347Z,102084.38
2022-12-17T22:04:22.507Z,102082.66
2022-12-17T22:06:56.019Z,102097.25
2022-12-17T22:09:43.711Z,102095.53
2022-12-17T22:12:35.884Z,102099.78
2022-12-17T22:15:06.462Z,102098.91
2022-12-17T22:17:34.925Z,102105.78
2022-12-17T22:20:02.928Z,102102.31
2022-12-17T22:22:32.778Z,102089.41
2022-12-17T22:25:07.569Z,102086.00
2022-12-17T22:27:36.240Z,102099.72
2022-12-17T22:30:27.753Z,102097.97
2022-12-17T22:33:07.573Z,102085.13
2022-12-17T22:36:37.992Z,102096.22
2022-12-17T22:44:33.412Z,102086.78
2022-12-17T22:44:42.605Z,102080.78
2022-12-17T22:46:20.672Z,102091.03
2022-12-17T22:48:48.550Z,102102.19
2022-12-17T22:51:25.709Z,102093.59
2022-12-17T22:54:02.876Z,102089.31
2022-12-17T22:56:56.413Z,102091.03
2022-12-17T22:59:21.137Z,102089.31
2022-12-17T23:01:49.211Z,102090.97
2022-12-17T23:04:18.170Z,102086.69
2022-12-17T23:06:47.093Z,102077.22
2022-12-17T23:09:19.093Z,102083.22
2022-12-17T23:11:49.880Z,102086.66
2022-12-17T23:14:18.265Z,102082.38
2022-12-17T23:16:46.481Z,102089.25
2022-12-17T23:19:14.477Z,102081.50
2022-12-17T23:21:42.379Z,102080.59
2022-12-17T23:24:10.639Z,102090.91
2022-12-17T23:26:39.926Z,102097.81
2022-12-17T23:29:14.921Z,102092.56
2022-12-17T23:31:45.605Z,102086.59
2022-12-17T23:34:13.657Z,102098.63
2022-12-17T23:36:41.833Z,102097.72
2022-12-17T23:39:09.867Z,102082.25
2022-12-17T23:41:37.860Z,102084.81
2022-12-17T23:44:05.907Z,102079.66
2022-12-17T23:46:35.267Z,102082.22
2022-12-17T23:49:05.219Z,102079.63
2022-12-17T23:51:34.021Z,102071.03
2022-12-17T23:54:02.146Z,102071.03
2022-12-17T23:56:30.225Z,102071.03
2022-12-17T23:58:59.997Z,102069.28
